createdAt,value
2023-03-11T00:00:38.219Z,7.05
2023-03-11T00:03:08.304Z,6.55
2023-03-11T00:05:38.841Z,5.40
2023-03-11T00:08:07.249Z,7.20
2023-03-11T00:10:41.154Z,5.07
2023-03-11T00:13:10.729Z,4.70
2023-03-11T00:15:39.372Z,6.22
2023-03-11T00:18:06.424Z,6.35
2023-03-11T00:20:39.054Z,7.07
2023-03-11T00:23:07.547Z,6.57
2023-03-11T00:25:36.895Z,6.75
2023-03-11T00:28:07.186Z,8.98
2023-03-11T00:30:34.032Z,8.07
2023-03-11T00:33:01.120Z,6.65
2023-03-11T00:35:30.481Z,6.13
2023-03-11T00:38:00.751Z,7.03
2023-03-11T00:40:30.228Z,8.77
2023-03-11T00:42:57.385Z,8.85
2023-03-11T00:45:25.010Z,5.40
2023-03-11T00:47:53.293Z,8.00
2023-03-11T00:50:33.442Z,10.20
2023-03-11T00:53:00.787Z,11.70
2023-03-11T00:55:31.436Z,7.97
2023-03-11T00:58:00.513Z,9.30
2023-03-11T01:00:28.802Z,6.80
2023-03-11T01:02:56.361Z,10.65
2023-03-11T01:05:28.255Z,9.02
2023-03-11T01:07:55.663Z,12.05
2023-03-11T01:10:23.151Z,7.13
2023-03-11T01:12:50.348Z,8.57
2023-03-11T01:15:35.539Z,8.57
2023-03-11T01:18:03.645Z,9.07
2023-03-11T01:20:30.792Z,12.02
2023-03-11T01:22:57.970Z,10.15
2023-03-11T01:25:25.450Z,10.40
2023-03-11T01:27:52.369Z,10.38
2023-03-11T01:30:22.254Z,9.70
2023-03-11T01:32:49.479Z,10.30
2023-03-11T01:35:19.364Z,9.05
2023-03-11T01:37:46.835Z,8.15
2023-03-11T01:40:48.305Z,7.85
2023-03-11T01:43:40.897Z,9.43
2023-03-11T01:46:16.179Z,8.07
2023-03-11T01:48:50.511Z,10.13
2023-03-11T01:51:38.027Z,10.38
2023-03-11T01:54:31.872Z,8.43
2023-03-11T01:57:00.267Z,12.02
2023-03-11T01:59:30.397Z,9.77
2023-03-11T02:02:23.650Z,8.15
2023-03-11T02:04:51.488Z,7.55
2023-03-11T02:07:18.663Z,11.68
2023-03-11T02:09:46.710Z,10.32
2023-03-11T02:12:15.113Z,6.55
2023-03-11T02:14:51.535Z,7.45
2023-03-11T02:17:18.619Z,7.28
2023-03-11T02:20:27.466Z,9.20
2023-03-11T02:22:57.281Z,7.35
2023-03-11T02:25:59.999Z,6.40
2023-03-11T02:28:28.472Z,7.38
2023-03-11T02:30:56.919Z,8.10
2023-03-11T02:33:29.196Z,7.15
2023-03-11T02:35:57.686Z,6.40
2023-03-11T02:38:24.511Z,5.80
2023-03-11T02:41:00.232Z,5.60
2023-03-11T02:43:45.093Z,4.65
2023-03-11T02:46:14.220Z,4.13
2023-03-11T02:48:42.196Z,4.75
2023-03-11T02:51:09.167Z,4.22
2023-03-11T02:53:41.570Z,4.63
2023-03-11T02:56:08.437Z,4.60
2023-03-11T02:58:35.499Z,7.18
2023-03-11T03:01:03.438Z,4.10
2023-03-11T03:03:30.444Z,8.23
2023-03-11T03:05:57.327Z,4.85
2023-03-11T03:08:24.384Z,6.43
2023-03-11T03:10:51.159Z,5.07
2023-03-11T03:13:18.081Z,4.50
2023-03-11T03:15:44.905Z,7.07
2023-03-11T03:18:12.057Z,7.53
2023-03-11T03:20:38.814Z,6.53
2023-03-11T03:23:05.548Z,5.88
2023-03-11T03:25:32.291Z,5.40
2023-03-11T03:27:59.064Z,7.18
2023-03-11T03:30:25.808Z,4.60
2023-03-11T03:32:52.736Z,5.25
2023-03-11T03:35:20.238Z,4.95
2023-03-11T03:37:48.167Z,5.50
2023-03-11T03:40:15.168Z,5.80
2023-03-11T03:42:42.062Z,7.15
2023-03-11T03:45:09.858Z,5.65
2023-03-11T03:47:37.120Z,6.10
2023-03-11T03:50:06.577Z,4.28
2023-03-11T03:52:35.568Z,6.90
2023-03-11T03:55:05.403Z,6.43
2023-03-11T03:57:33.072Z,5.82
2023-03-11T03:59:59.891Z,4.50
2023-03-11T04:02:26.766Z,4.38
2023-03-11T04:04:53.413Z,4.53
2023-03-11T04:07:20.169Z,4.15
2023-03-11T04:09:46.983Z,5.18
2023-03-11T04:12:15.040Z,5.15
2023-03-11T04:14:42.264Z,4.00
2023-03-11T04:17:13.936Z,3.35
2023-03-11T04:19:40.911Z,4.00
2023-03-11T04:22:07.727Z,2.78
2023-03-11T04:24:34.807Z,5.00
2023-03-11T04:27:01.711Z,5.72
2023-03-11T04:29:28.580Z,4.28
2023-03-11T04:31:55.255Z,4.40
2023-03-11T04:34:22.176Z,4.47
2023-03-11T04:36:52.898Z,4.55
2023-03-11T04:39:19.801Z,3.65
2023-03-11T04:41:46.494Z,4.38
2023-03-11T04:44:13.257Z,7.25
2023-03-11T04:46:39.898Z,4.68
2023-03-11T04:49:06.572Z,9.00
2023-03-11T04:51:33.619Z,3.60
2023-03-11T04:54:00.821Z,4.45
2023-03-11T04:56:27.554Z,4.68
2023-03-11T04:58:54.414Z,5.60
2023-03-11T05:01:21.137Z,3.42
2023-03-11T05:03:48.206Z,5.05
2023-03-11T05:06:15.022Z,2.92
2023-03-11T05:08:42.029Z,4.32
2023-03-11T05:11:09.070Z,4.40
2023-03-11T05:13:36.204Z,4.40
2023-03-11T05:16:02.998Z,4.22
2023-03-11T05:18:32.226Z,3.63
2023-03-11T05:21:00.201Z,6.43
2023-03-11T05:23:26.919Z,3.85
2023-03-11T05:25:53.674Z,4.05
2023-03-11T05:28:20.533Z,4.25
2023-03-11T05:30:47.506Z,5.53
2023-03-11T05:33:14.809Z,3.97
2023-03-11T05:35:43.219Z,4.32
2023-03-11T05:38:11.574Z,4.07
2023-03-11T05:40:38.312Z,4.03
2023-03-11T05:43:05.242Z,5.18
2023-03-11T05:45:32.154Z,3.92
2023-03-11T05:47:58.931Z,5.55
2023-03-11T05:50:26.003Z,4.40
2023-03-11T05:52:53.085Z,6.05
2023-03-11T05:55:19.866Z,4.93
2023-03-11T05:57:46.697Z,5.95
2023-03-11T06:00:14.215Z,4.90
2023-03-11T06:02:41.805Z,4.25
2023-03-11T06:05:11.064Z,3.67
2023-03-11T06:07:39.751Z,4.70
2023-03-11T06:10:07.481Z,4.30
2023-03-11T06:12:35.267Z,8.88
2023-03-11T06:15:03.167Z,3.92
2023-03-11T06:17:30.573Z,6.03
2023-03-11T06:19:57.411Z,3.80
2023-03-11T06:22:24.542Z,4.85
2023-03-11T06:24:51.930Z,4.95
2023-03-11T06:27:18.794Z,4.38
2023-03-11T06:29:47.675Z,4.45
2023-03-11T06:32:15.414Z,5.47
2023-03-11T06:34:42.049Z,3.58
2023-03-11T06:37:08.784Z,5.90
2023-03-11T06:39:35.508Z,3.75
2023-03-11T06:42:02.324Z,4.35
2023-03-11T06:44:29.115Z,4.95
2023-03-11T06:46:55.873Z,5.43
2023-03-11T06:49:22.708Z,4.65
2023-03-11T06:51:49.501Z,3.35
2023-03-11T06:54:16.248Z,3.58
2023-03-11T06:56:43.009Z,3.20
2023-03-11T06:59:09.968Z,6.57
2023-03-11T07:01:36.890Z,2.83
2023-03-11T07:04:03.778Z,3.90
2023-03-11T07:06:30.741Z,3.40
2023-03-11T07:08:57.661Z,2.97
2023-03-11T07:11:28.265Z,2.60
2023-03-11T07:13:55.141Z,4.50
2023-03-11T07:16:24.999Z,5.20
2023-03-11T07:18:53.004Z,4.32
2023-03-11T07:21:22.097Z,3.58
2023-03-11T07:23:52.872Z,2.83
2023-03-11T07:26:20.175Z,3.65
2023-03-11T07:28:49.274Z,2.63
2023-03-11T07:31:18.805Z,4.40
2023-03-11T07:33:45.848Z,5.22
2023-03-11T07:36:19.434Z,4.85
2023-03-11T07:38:47.379Z,2.80
2023-03-11T07:41:15.441Z,4.18
2023-03-11T07:43:43.076Z,3.55
2023-03-11T07:46:14.041Z,2.92
2023-03-11T07:48:40.988Z,2.75
2023-03-11T07:51:13.541Z,3.60
2023-03-11T07:53:40.718Z,5.03
2023-03-11T07:56:08.811Z,4.80
2023-03-11T07:58:36.205Z,3.67
2023-03-11T08:01:18.193Z,6.82
2023-03-11T08:03:46.581Z,4.47
2023-03-11T08:06:21.433Z,5.28
2023-03-11T08:08:49.192Z,5.53
2023-03-11T08:11:16.993Z,5.32
2023-03-11T08:13:45.442Z,5.15
2023-03-11T08:16:15.313Z,5.60
2023-03-11T08:18:42.509Z,6.30
2023-03-11T08:21:13.262Z,6.03
2023-03-11T08:23:40.316Z,9.00
2023-03-11T08:26:10.172Z,8.32
2023-03-11T08:28:37.534Z,7.85
2023-03-11T08:31:14.636Z,7.60
2023-03-11T08:33:42.082Z,9.63
2023-03-11T08:36:09.196Z,7.85
2023-03-11T08:38:36.108Z,8.63
2023-03-11T08:41:02.959Z,10.07
2023-03-11T08:43:29.774Z,10.27
2023-03-11T08:45:56.457Z,9.15
2023-03-11T08:48:25.436Z,9.40
2023-03-11T08:50:54.618Z,9.88
2023-03-11T08:53:25.132Z,12.55
2023-03-11T08:55:52.738Z,9.05
2023-03-11T08:58:20.455Z,8.80
2023-03-11T09:00:47.693Z,8.98
2023-03-11T09:03:14.542Z,9.43
2023-03-11T09:05:41.723Z,10.63
2023-03-11T09:08:08.473Z,10.30
2023-03-11T09:10:35.329Z,11.18
2023-03-11T09:13:02.087Z,10.35
2023-03-11T09:15:29.090Z,9.27
2023-03-11T09:17:56.774Z,8.23
2023-03-11T09:20:24.032Z,7.57
2023-03-11T09:22:50.903Z,10.52
2023-03-11T09:25:17.753Z,9.20
2023-03-11T09:27:44.460Z,7.63
2023-03-11T09:30:12.034Z,8.52
2023-03-11T09:32:38.783Z,7.57
2023-03-11T09:35:05.923Z,8.10
2023-03-11T09:37:32.732Z,11.45
2023-03-11T09:39:59.463Z,6.72
2023-03-11T09:42:31.623Z,6.80
2023-03-11T09:45:08.438Z,6.90
2023-03-11T09:47:41.688Z,7.75
2023-03-11T09:50:23.916Z,10.05
2023-03-11T09:53:09.134Z,7.03
2023-03-11T09:55:44.263Z,7.95
2023-03-11T09:58:21.962Z,7.57
2023-03-11T10:00:51.975Z,10.63
2023-03-11T10:03:39.673Z,5.65
2023-03-11T10:06:06.919Z,8.75
2023-03-11T10:08:52.274Z,7.30
2023-03-11T10:11:27.147Z,5.63
2023-03-11T10:14:03.274Z,5.57
2023-03-11T10:16:45.496Z,7.63
2023-03-11T10:19:12.294Z,7.32
2023-03-11T10:21:53.022Z,6.13
2023-03-11T10:24:28.179Z,5.68
2023-03-11T10:27:00.110Z,4.82
2023-03-11T10:29:44.988Z,5.63
2023-03-11T10:32:19.849Z,4.95
2023-03-11T10:34:53.157Z,4.32
2023-03-11T10:37:48.235Z,4.68
2023-03-11T10:40:26.137Z,6.10
2023-03-11T10:42:55.200Z,5.43
2023-03-11T10:45:23.546Z,4.18
2023-03-11T10:47:50.468Z,4.22
2023-03-11T10:50:18.453Z,4.30
2023-03-11T10:53:07.732Z,5.55
2023-03-11T10:55:35.585Z,4.60
2023-03-11T10:58:17.443Z,4.53
2023-03-11T11:00:44.566Z,4.18
2023-03-11T11:03:23.174Z,4.97
2023-03-11T11:06:21.885Z,4.63
2023-03-11T11:08:48.600Z,3.05
2023-03-11T11:11:24.041Z,4.72
2023-03-11T11:13:59.309Z,3.85
2023-03-11T11:16:27.264Z,4.43
2023-03-11T11:19:03.726Z,2.75
2023-03-11T11:21:39.380Z,3.22
2023-03-11T11:24:23.254Z,4.82
2023-03-11T11:27:11.917Z,3.35
2023-03-11T11:29:38.936Z,2.60
2023-03-11T11:32:26.085Z,3.97
2023-03-11T11:35:01.616Z,3.95
2023-03-11T11:37:34.661Z,4.00
2023-03-11T11:40:17.086Z,4.50
2023-03-11T11:42:50.554Z,3.22
2023-03-11T11:45:39.238Z,4.57
2023-03-11T11:48:15.406Z,3.15
2023-03-11T11:50:45.998Z,5.18
2023-03-11T11:53:25.277Z,3.30
2023-03-11T11:55:54.194Z,2.53
2023-03-11T11:58:21.953Z,2.00
2023-03-11T12:01:05.769Z,3.10
2023-03-11T12:03:41.448Z,3.38
2023-03-11T12:06:27.898Z,3.55
2023-03-11T12:09:06.271Z,2.95
2023-03-11T12:11:50.558Z,4.05
2023-03-11T12:14:33.781Z,3.13
2023-03-11T12:17:04.271Z,2.28
2023-03-11T12:19:55.434Z,2.50
2023-03-11T12:22:31.122Z,1.52
2023-03-11T12:25:22.552Z,1.75
2023-03-11T12:28:06.312Z,1.52
2023-03-11T12:30:36.984Z,2.30
2023-03-11T12:33:13.998Z,2.88
2023-03-11T12:35:49.864Z,1.85
2023-03-11T12:38:33.286Z,2.38
2023-03-11T12:41:05.592Z,3.50
2023-03-11T12:43:35.046Z,1.52
2023-03-11T12:46:13.343Z,1.70
2023-03-11T12:48:44.579Z,1.77
2023-03-11T12:51:26.756Z,1.85
2023-03-11T12:53:55.413Z,1.15
2023-03-11T12:56:37.117Z,3.08
2023-03-11T12:59:21.649Z,1.30
2023-03-11T13:02:17.284Z,1.77
2023-03-11T13:04:59.152Z,2.55
2023-03-11T13:07:49.186Z,1.65
2023-03-11T13:10:35.787Z,1.40
2023-03-11T13:13:02.970Z,3.33
2023-03-11T13:15:34.271Z,1.65
2023-03-11T13:18:01.039Z,3.13
2023-03-11T13:20:42.803Z,1.70
2023-03-11T13:23:12.522Z,2.17
2023-03-11T13:25:39.492Z,1.67
2023-03-11T13:28:15.263Z,4.68
2023-03-11T13:30:53.843Z,1.13
2023-03-11T13:33:48.525Z,1.98
2023-03-11T13:36:52.874Z,1.40
2023-03-11T13:39:22.385Z,1.83
2023-03-11T13:41:49.438Z,2.60
2023-03-11T13:44:19.164Z,1.92
2023-03-11T13:46:51.113Z,2.35
2023-03-11T13:49:28.445Z,0.98
2023-03-11T13:51:57.010Z,4.97
2023-03-11T13:54:32.625Z,2.50
2023-03-11T13:57:01.515Z,1.25
2023-03-11T13:59:30.161Z,4.40
2023-03-11T14:02:17.266Z,2.38
2023-03-11T14:07:31.796Z,2.45
2023-03-11T14:10:23.113Z,2.25
2023-03-11T14:12:50.431Z,3.97
2023-03-11T14:15:29.170Z,2.35
2023-03-11T14:18:26.710Z,2.42
2023-03-11T14:20:53.911Z,2.00
2023-03-11T14:23:21.175Z,3.15
2023-03-11T14:25:48.415Z,2.28
2023-03-11T14:28:21.672Z,3.17
2023-03-11T14:30:59.415Z,3.72
2023-03-11T14:33:26.576Z,2.90
2023-03-11T14:35:55.107Z,2.78
2023-03-11T14:38:23.991Z,3.55
2023-03-11T14:40:56.853Z,2.40
2023-03-11T14:43:24.142Z,2.55
2023-03-11T14:45:52.674Z,3.28
2023-03-11T14:48:36.276Z,3.63
2023-03-11T14:51:05.979Z,4.05
2023-03-11T14:53:42.692Z,1.90
2023-03-11T14:56:15.928Z,2.33
2023-03-11T14:59:08.394Z,2.45
2023-03-11T15:01:40.970Z,4.90
2023-03-11T15:04:16.158Z,4.70
2023-03-11T15:06:45.054Z,2.78
2023-03-11T15:09:15.753Z,4.07
2023-03-11T15:11:59.844Z,2.80
2023-03-11T15:14:31.621Z,4.60
2023-03-11T15:19:55.118Z,3.47
2023-03-11T15:22:38.667Z,4.57
2023-03-11T15:25:17.027Z,3.10
2023-03-11T15:27:43.893Z,4.20
2023-03-11T15:30:26.038Z,4.40
2023-03-11T15:32:53.595Z,2.35
2023-03-11T15:35:30.609Z,3.50
2023-03-11T15:38:21.536Z,4.20
2023-03-11T15:41:00.991Z,3.33
2023-03-11T15:44:00.117Z,5.57
2023-03-11T15:46:26.919Z,3.90
2023-03-11T15:48:53.702Z,6.22
2023-03-11T15:51:20.812Z,3.47
2023-03-11T15:53:48.730Z,4.45
2023-03-11T15:56:24.119Z,3.65
2023-03-11T15:58:50.970Z,3.97
2023-03-11T16:01:22.822Z,6.05
2023-03-11T16:03:49.727Z,4.68
2023-03-11T16:06:16.537Z,3.13
2023-03-11T16:08:44.892Z,3.22
2023-03-11T16:11:15.436Z,4.00
2023-03-11T16:13:42.182Z,3.03
2023-03-11T16:16:17.143Z,4.22
2023-03-11T16:18:43.863Z,4.60
2023-03-11T16:21:18.812Z,4.20
2023-03-11T16:23:51.988Z,3.58
2023-03-11T16:26:19.771Z,2.35
2023-03-11T16:28:46.660Z,3.20
2023-03-11T16:31:13.566Z,1.80
2023-03-11T16:33:40.359Z,3.03
2023-03-11T16:36:07.521Z,2.88
2023-03-11T16:38:44.553Z,1.42
2023-03-11T16:41:11.649Z,2.33
2023-03-11T16:43:38.402Z,3.53
2023-03-11T16:46:05.313Z,2.40
2023-03-11T16:48:32.045Z,2.00
2023-03-11T16:50:58.889Z,3.95
2023-03-11T16:53:26.290Z,3.35
2023-03-11T16:55:53.728Z,4.88
2023-03-11T16:58:20.798Z,2.35
2023-03-11T17:00:47.916Z,2.47
2023-03-11T17:03:21.200Z,3.15
2023-03-11T17:05:48.632Z,2.78
2023-03-11T17:08:18.055Z,4.47
2023-03-11T17:10:45.967Z,5.63
2023-03-11T17:13:14.144Z,5.43
2023-03-11T17:15:44.425Z,4.82
2023-03-11T17:18:12.522Z,4.82
2023-03-11T17:20:40.805Z,3.13
2023-03-11T17:23:07.488Z,6.88
2023-03-11T17:25:34.270Z,6.00
2023-03-11T17:28:01.007Z,5.78
2023-03-11T17:30:36.940Z,4.20
2023-03-11T17:33:04.409Z,3.10
2023-03-11T17:35:31.184Z,3.22
2023-03-11T17:37:57.967Z,4.32
2023-03-11T17:40:26.789Z,5.65
2023-03-11T17:42:53.646Z,4.15
2023-03-11T17:45:20.747Z,5.13
2023-03-11T17:47:47.600Z,1.48
2023-03-11T17:50:14.251Z,4.45
2023-03-11T17:52:41.118Z,4.15
2023-03-11T17:55:08.437Z,8.65
2023-03-11T17:57:44.427Z,4.80
2023-03-11T18:00:14.620Z,4.82
2023-03-11T18:02:41.532Z,5.30
2023-03-11T18:05:09.356Z,3.03
2023-03-11T18:07:39.549Z,4.57
2023-03-11T18:10:07.730Z,4.90
2023-03-11T18:12:34.796Z,3.45
2023-03-11T18:15:08.159Z,4.07
2023-03-11T18:17:35.540Z,3.95
2023-03-11T18:20:02.860Z,6.18
2023-03-11T18:22:29.609Z,4.53
2023-03-11T18:24:57.657Z,4.28
2023-03-11T18:27:24.641Z,3.97
2023-03-11T18:29:51.629Z,4.38
2023-03-11T18:32:20.665Z,3.80
2023-03-11T18:34:50.682Z,4.55
2023-03-11T18:37:17.482Z,5.38
2023-03-11T18:39:44.296Z,3.47
2023-03-11T18:42:11.139Z,5.78
2023-03-11T18:44:37.855Z,3.05
2023-03-11T18:47:04.579Z,7.78
2023-03-11T18:49:31.437Z,4.57
2023-03-11T18:51:58.319Z,7.68
2023-03-11T18:54:25.080Z,7.82
2023-03-11T18:56:51.797Z,4.18
2023-03-11T18:59:18.518Z,6.35
2023-03-11T19:01:45.353Z,5.05
2023-03-11T19:04:12.361Z,5.20
2023-03-11T19:06:39.672Z,5.53
2023-03-11T19:09:06.663Z,2.10
2023-03-11T19:11:33.691Z,2.90
2023-03-11T19:14:00.472Z,4.70
2023-03-11T19:16:27.644Z,4.70
2023-03-11T19:18:55.227Z,3.30
2023-03-11T19:21:22.773Z,5.88
2023-03-11T19:23:52.697Z,4.95
2023-03-11T19:26:20.157Z,3.75
2023-03-11T19:28:47.725Z,5.28
2023-03-11T19:31:14.878Z,3.20
2023-03-11T19:33:45.778Z,5.75
2023-03-11T19:36:13.021Z,3.97
2023-03-11T19:38:39.839Z,8.55
2023-03-11T19:41:10.645Z,2.75
2023-03-11T19:43:37.740Z,5.13
2023-03-11T19:46:05.534Z,5.22
2023-03-11T19:48:32.708Z,6.15
2023-03-11T19:50:59.812Z,2.53
2023-03-11T19:53:26.823Z,3.47
2023-03-11T19:55:56.344Z,4.30
2023-03-11T19:58:24.668Z,2.78
2023-03-11T20:00:52.234Z,2.45
2023-03-11T20:03:20.841Z,6.28
2023-03-11T20:05:49.468Z,3.85
2023-03-11T20:08:18.825Z,3.42
2023-03-11T20:10:48.901Z,3.30
2023-03-11T20:13:17.518Z,3.95
2023-03-11T20:15:44.404Z,4.72
2023-03-11T20:18:11.434Z,5.95
2023-03-11T20:20:39.623Z,3.50
2023-03-11T20:23:06.485Z,4.72
2023-03-11T20:25:34.865Z,3.13
2023-03-11T20:28:01.836Z,3.90
2023-03-11T20:30:29.150Z,4.45
2023-03-11T20:32:56.455Z,8.27
2023-03-11T20:35:23.425Z,7.75
2023-03-11T20:37:50.670Z,5.75
2023-03-11T20:40:18.566Z,4.32
2023-03-11T20:42:47.195Z,6.13
2023-03-11T20:45:21.873Z,4.82
2023-03-11T20:47:50.340Z,4.60
2023-03-11T20:50:17.347Z,2.72
2023-03-11T20:52:44.463Z,4.13
2023-03-11T20:55:11.972Z,4.30
2023-03-11T20:57:39.540Z,3.97
2023-03-11T21:00:11.420Z,2.78
2023-03-11T21:05:11.298Z,5.15
2023-03-11T21:07:38.448Z,5.65
2023-03-11T21:10:09.071Z,4.70
2023-03-11T21:12:35.781Z,7.88
2023-03-11T21:15:04.174Z,6.95
2023-03-11T21:17:31.015Z,4.53
2023-03-11T21:19:57.835Z,3.47
2023-03-11T21:22:24.999Z,3.78
2023-03-11T21:24:53.421Z,5.60
2023-03-11T21:27:26.215Z,5.20
2023-03-11T21:29:54.631Z,4.63
2023-03-11T21:32:22.816Z,5.03
2023-03-11T21:34:50.006Z,3.50
2023-03-11T21:37:17.119Z,3.63
2023-03-11T21:39:44.022Z,4.13
2023-03-11T21:42:11.217Z,2.92
2023-03-11T21:44:38.067Z,3.88
2023-03-11T21:47:05.859Z,7.15
2023-03-11T21:49:33.050Z,3.15
2023-03-11T21:52:02.220Z,2.78
2023-03-11T21:54:29.310Z,7.20
2023-03-11T21:56:56.577Z,2.60
2023-03-11T21:59:25.490Z,3.67
2023-03-11T22:01:53.042Z,2.65
2023-03-11T22:04:20.180Z,3.92
2023-03-11T22:06:47.013Z,1.90
2023-03-11T22:09:13.979Z,4.55
2023-03-11T22:11:41.017Z,3.00
2023-03-11T22:14:07.813Z,2.03
2023-03-11T22:16:34.819Z,3.55
2023-03-11T22:19:01.835Z,4.05
2023-03-11T22:21:28.567Z,4.32
2023-03-11T22:23:55.277Z,3.03
2023-03-11T22:26:22.053Z,2.63
2023-03-11T22:28:48.735Z,6.03
2023-03-11T22:31:16.211Z,1.23
2023-03-11T22:33:42.968Z,2.35
2023-03-11T22:36:10.154Z,4.88
2023-03-11T22:38:37.227Z,2.00
2023-03-11T22:41:08.112Z,2.70
2023-03-11T22:43:35.654Z,3.13
2023-03-11T22:46:04.667Z,2.85
2023-03-11T22:48:32.949Z,3.63
2023-03-11T22:50:59.931Z,4.90
2023-03-11T22:53:26.968Z,2.70
2023-03-11T22:55:53.927Z,3.92
2023-03-11T22:58:20.781Z,4.93
2023-03-11T23:00:48.355Z,6.60
2023-03-11T23:03:16.523Z,3.38
2023-03-11T23:05:45.798Z,5.05
2023-03-11T23:08:15.187Z,4.65
2023-03-11T23:10:44.494Z,3.00
2023-03-11T23:13:12.486Z,4.65
2023-03-11T23:15:44.383Z,5.07
2023-03-11T23:18:11.817Z,3.90
2023-03-11T23:20:40.044Z,1.60
2023-03-11T23:23:08.001Z,4.43
2023-03-11T23:25:35.653Z,2.78
2023-03-11T23:28:04.090Z,5.35
2023-03-11T23:30:31.458Z,5.53
2023-03-11T23:32:59.504Z,4.18
2023-03-11T23:35:26.456Z,5.13
2023-03-11T23:37:53.184Z,4.07
2023-03-11T23:40:20.098Z,6.40
2023-03-11T23:42:46.870Z,4.00
2023-03-11T23:45:13.801Z,3.38
2023-03-11T23:47:40.503Z,3.55
2023-03-11T23:50:07.940Z,4.45
2023-03-11T23:52:35.184Z,5.32
2023-03-11T23:55:02.031Z,4.03
2023-03-11T23:57:28.806Z,2.35
2023-03-11T23:59:55.663Z,5.70
